Time;durP1;ratioP1;P1;durP2;ratioP2;P2;SDS_P1;SDS_P2;PMS_P1;PMS_P2;Temp;Humidity;BMP_temperature;BMP_pressure;BME280_temperature;BME280_humidity;BME280_pressure;Samples;Min_cycle;Max_cycle;Signal;HPM_P1;HPM_P2
2023/02/25 00:02:07;;;;;;;17.67;8.60;;;;;;;7.07;75.22;96369.22;4968884;28;20031;-85
2023/02/25 00:04:33;;;;;;;17.83;8.90;;;;;;;7.05;75.68;96371.47;4969139;28;20030;-84
2023/02/25 00:06:58;;;;;;;21.70;9.90;;;;;;;7.03;75.76;96354.63;4968492;28;20023;-84
2023/02/25 00:09:24;;;;;;;24.60;11.85;;;;;;;6.99;75.82;96349.03;4968890;28;20110;-84
2023/02/25 00:11:49;;;;;;;25.15;12.88;;;;;;;6.98;75.46;96352.09;4968822;28;20031;-85
2023/02/25 00:14:14;;;;;;;34.67;14.63;;;;;;;6.94;75.94;96343.75;4967392;28;20069;-84
2023/02/25 00:16:40;;;;;;;29.33;13.63;;;;;;;6.93;76.01;96352.25;4971213;28;20053;-84
2023/02/25 00:19:05;;;;;;;31.92;16.02;;;;;;;6.95;75.61;96339.09;4972383;28;20034;-84
2023/02/25 00:21:30;;;;;;;34.03;19.63;;;;;;;6.95;75.77;96333.66;4972414;28;20073;-85
2023/02/25 00:23:56;;;;;;;34.80;21.10;;;;;;;6.95;76.03;96336.38;4972313;28;20491;-83
2023/02/25 00:26:22;;;;;;;42.00;23.77;;;;;;;6.92;75.69;96331.56;4971583;28;20030;-83
2023/02/25 00:28:48;;;;;;;40.00;22.95;;;;;;;6.91;75.74;96329.97;4972542;28;20023;-83
2023/02/25 00:31:22;;;;;;;43.00;25.08;;;;;;;6.84;75.84;96328.53;4972171;28;20030;-83
2023/02/25 00:33:48;;;;;;;42.33;24.42;;;;;;;6.83;75.82;96326.16;4972302;28;20031;-84
2023/02/25 00:36:19;;;;;;;44.22;24.52;;;;;;;6.83;75.60;96316.03;4972024;28;20499;-83
2023/02/25 00:38:49;;;;;;;48.10;24.75;;;;;;;6.83;75.99;96315.25;4972556;28;20034;-83
2023/02/25 00:41:17;;;;;;;51.45;27.13;;;;;;;6.81;75.89;96307.38;4971789;28;20078;-83
2023/02/25 00:43:49;;;;;;;46.47;25.63;;;;;;;6.81;76.06;96306.59;4971073;28;20510;-85
2023/02/25 00:46:15;;;;;;;44.13;24.77;;;;;;;6.79;75.97;96306.91;4971585;28;20027;-85
2023/02/25 00:48:41;;;;;;;44.30;23.92;;;;;;;6.77;76.12;96298.25;4972033;28;20031;-86
2023/02/25 00:51:22;;;;;;;48.80;24.95;;;;;;;6.75;75.95;96307.91;4971868;28;20030;-84
2023/02/25 00:53:47;;;;;;;48.58;24.42;;;;;;;6.69;75.86;96302.63;4969672;28;20639;-85
2023/02/25 00:56:15;;;;;;;48.90;25.48;;;;;;;6.65;75.71;96295.44;4971964;28;20062;-85
2023/02/25 00:58:42;;;;;;;48.40;25.48;;;;;;;6.63;76.09;96292.22;4971613;28;20444;-85
2023/02/25 01:01:29;;;;;;;58.17;29.92;;;;;;;6.60;75.91;96287.44;4971574;28;20027;-85
2023/02/25 01:03:56;;;;;;;56.53;29.02;;;;;;;6.60;75.83;96287.44;4969653;28;20054;-85
2023/02/25 01:06:22;;;;;;;52.60;27.08;;;;;;;6.58;76.17;96285.00;4970966;28;20503;-83
2023/02/25 01:08:48;;;;;;;53.55;28.48;;;;;;;6.58;76.29;96279.56;4971256;28;20105;-83
2023/02/25 01:11:20;;;;;;;54.60;28.63;;;;;;;6.58;76.01;96279.56;4970470;28;20556;-83
2023/02/25 01:13:48;;;;;;;46.88;25.60;;;;;;;6.58;76.33;96292.41;4968935;28;20486;-82
2023/02/25 01:16:16;;;;;;;48.45;24.92;;;;;;;6.50;76.01;96296.75;4971059;28;20037;-82
2023/02/25 01:18:43;;;;;;;42.40;22.70;;;;;;;6.38;75.87;96281.84;4971514;28;20113;-82
2023/02/25 01:21:24;;;;;;;43.13;23.15;;;;;;;6.32;76.06;96279.59;4970921;28;20031;-83
2023/02/25 01:24:00;;;;;;;38.92;20.60;;;;;;;6.25;75.93;96280.91;4971671;28;20034;-84
2023/02/25 01:26:27;;;;;;;36.72;19.92;;;;;;;6.21;75.56;96290.84;4971038;28;20660;-84
2023/02/25 01:28:54;;;;;;;34.55;18.70;;;;;;;6.16;76.27;96280.13;4970437;28;20015;-84
2023/02/25 01:31:27;;;;;;;33.83;18.90;;;;;;;6.10;75.66;96279.47;4970878;28;20034;-85
2023/02/25 01:34:00;;;;;;;28.95;16.17;;;;;;;6.07;75.99;96280.13;4968692;28;20023;-85
2023/02/25 01:36:28;;;;;;;30.55;17.02;;;;;;;6.05;75.67;96284.28;4970678;28;20641;-84
2023/02/25 01:38:55;;;;;;;29.77;16.17;;;;;;;5.99;76.21;96288.22;4970347;28;20051;-85
2023/02/25 01:41:21;;;;;;;29.48;17.00;;;;;;;5.95;76.13;96288.88;4970649;28;20026;-85
2023/02/25 01:44:14;;;;;;;30.30;15.63;;;;;;;5.93;75.92;96291.09;4970953;28;20348;-85
2023/02/25 01:46:42;;;;;;;29.77;16.42;;;;;;;5.93;76.04;96291.09;4969745;28;20034;-84
2023/02/25 01:49:19;;;;;;;32.63;17.45;;;;;;;5.87;75.68;96292.41;4970666;28;20035;-84
2023/02/25 01:51:48;;;;;;;31.95;17.45;;;;;;;5.87;76.08;96286.16;4970338;28;20031;-84
2023/02/25 01:54:14;;;;;;;33.65;18.90;;;;;;;5.89;75.88;96286.63;4970686;28;20114;-83
2023/02/25 01:56:43;;;;;;;30.80;17.15;;;;;;;5.89;75.73;96289.34;4968793;28;20034;-83
2023/02/25 01:59:09;;;;;;;29.67;15.88;;;;;;;5.89;75.96;96287.44;4969519;28;20025;-83
2023/02/25 02:01:38;;;;;;;26.95;14.35;;;;;;;5.89;75.93;96284.72;4970339;28;20042;-84
2023/02/25 02:04:07;;;;;;;47.83;24.00;;;;;;;5.86;75.97;96281.84;4970511;28;20034;-85
2023/02/25 02:06:36;;;;;;;48.88;23.08;;;;;;;5.84;76.01;96279.44;4970151;28;20089;-85
2023/02/25 02:09:06;;;;;;;36.35;17.95;;;;;;;5.79;75.67;96269.50;4970413;28;20031;-85
2023/02/25 02:11:31;;;;;;;28.77;14.43;;;;;;;5.77;75.36;96277.19;4969762;28;20461;-84
2023/02/25 02:13:59;;;;;;;27.42;15.20;;;;;;;5.76;75.90;96288.38;4970203;28;20097;-85
2023/02/25 02:16:39;;;;;;;25.25;12.50;;;;;;;5.70;75.66;96289.66;4969711;28;20778;-85
2023/02/25 02:19:26;;;;;;;23.83;13.20;;;;;;;5.66;75.27;96287.56;4970203;28;20031;-86
2023/02/25 02:22:22;;;;;;;25.08;13.02;;;;;;;5.65;75.55;96283.25;4969826;28;20042;-84
2023/02/25 02:25:10;;;;;;;26.60;13.77;;;;;;;5.64;75.18;96295.25;4968959;28;20499;-87
2023/02/25 02:28:19;;;;;;;27.50;13.48;;;;;;;5.62;75.18;96286.59;4967478;28;20058;-86
2023/02/25 02:30:45;;;;;;;23.92;11.65;;;;;;;5.60;75.19;96296.22;4971101;28;20498;-88
2023/02/25 02:33:16;;;;;;;23.40;11.98;;;;;;;5.51;75.17;96296.97;4970016;28;20019;-89
2023/02/25 02:35:50;;;;;;;28.10;13.52;;;;;;;5.47;74.87;96287.84;4968171;28;20034;-90
2023/02/25 02:38:48;;;;;;;22.40;11.73;;;;;;;5.37;74.96;96282.69;4970188;28;20033;-90
2023/02/25 02:41:34;;;;;;;20.58;11.32;;;;;;;5.29;74.91;96297.09;4968804;28;20042;-90
2023/02/25 02:44:12;;;;;;;24.02;12.93;;;;;;;5.19;74.88;96285.38;4970156;28;20030;-92
2023/02/25 02:46:44;;;;;;;25.80;13.55;;;;;;;5.11;74.78;96291.59;4972209;28;20379;-94
2023/02/25 02:49:18;;;;;;;23.05;12.55;;;;;;;5.04;74.96;96300.19;4978644;28;20019;-94
2023/02/25 02:52:07;;;;;;;22.25;12.73;;;;;;;5.02;74.93;96302.44;4987694;28;20027;-94
2023/02/25 02:54:37;;;;;;;24.70;13.07;;;;;;;5.02;75.35;96313.28;4983991;28;20035;-95
2023/02/25 02:57:06;;;;;;;26.95;14.80;;;;;;;4.99;75.63;96310.38;4981363;28;20286;-96
2023/02/25 02:59:41;;;;;;;23.08;12.32;;;;;;;4.95;75.63;96310.22;4983250;28;20487;-95
2023/02/25 03:02:16;;;;;;;27.23;13.35;;;;;;;4.84;75.71;96317.03;4978583;28;20097;-94
2023/02/25 03:04:46;;;;;;;22.17;11.27;;;;;;;4.73;75.68;96316.50;4974493;28;20030;-93
2023/02/25 03:07:13;;;;;;;20.05;10.63;;;;;;;4.61;75.21;96317.84;4973421;28;20077;-93
2023/02/25 03:09:44;;;;;;;19.80;10.38;;;;;;;4.52;75.06;96321.63;4976970;28;20074;-94
2023/02/25 03:12:09;;;;;;;20.77;11.25;;;;;;;4.39;75.44;96329.53;4976792;28;20094;-93
2023/02/25 03:14:36;;;;;;;19.63;9.88;;;;;;;4.32;75.65;96326.44;4978290;28;20054;-94
2023/02/25 03:17:07;;;;;;;16.33;9.27;;;;;;;4.26;75.93;96333.13;4974771;28;20365;-93
2023/02/25 03:19:44;;;;;;;15.65;9.02;;;;;;;4.17;76.24;96338.47;4970847;28;20022;-91
2023/02/25 03:22:14;;;;;;;15.43;9.40;;;;;;;4.11;76.38;96343.22;4969937;28;20023;-81
2023/02/25 03:24:49;;;;;;;;;;;;;;;4.07;76.36;96344.13;4967674;28;20033;-86
2023/02/25 03:27:36;;;;;;;14.95;8.38;;;;;;;4.02;75.81;96348.56;4969361;28;19914;-81
2023/02/25 03:30:11;;;;;;;17.33;9.20;;;;;;;4.00;76.68;96344.53;4969259;28;20042;-89
2023/02/25 03:32:40;;;;;;;17.90;8.65;;;;;;;3.96;76.12;96352.50;4972958;28;20395;-92
2023/02/25 03:35:08;;;;;;;15.85;8.57;;;;;;;3.93;76.31;96358.53;4969467;28;20096;-92
2023/02/25 03:37:37;;;;;;;13.77;8.38;;;;;;;3.95;75.93;96364.44;4968991;28;20034;-91
2023/02/25 03:40:15;;;;;;;17.42;9.70;;;;;;;3.97;76.27;96374.97;4970323;28;20114;-92
2023/02/25 03:42:45;;;;;;;14.82;8.75;;;;;;;3.98;76.71;96369.28;4969917;28;20038;-82
2023/02/25 03:45:12;;;;;;;;;;;;;;;3.97;76.54;96374.97;4971065;28;20487;-82
2023/02/25 03:47:39;;;;;;;15.80;8.45;;;;;;;3.93;76.81;96365.84;4970358;28;19918;-83
2023/02/25 03:50:10;;;;;;;12.38;7.47;;;;;;;3.88;76.38;96361.34;4970346;28;20037;-82
2023/02/25 03:52:38;;;;;;;12.30;7.50;;;;;;;3.86;75.88;96358.94;4989314;28;20093;-82
2023/02/25 03:55:06;;;;;;;15.65;9.32;;;;;;;3.83;76.70;96362.28;4974114;28;20483;-83
2023/02/25 03:57:39;;;;;;;14.35;8.45;;;;;;;3.80;77.06;96354.75;4973633;28;20623;-83
2023/02/25 04:00:16;;;;;;;13.60;7.93;;;;;;;3.76;76.48;96361.88;4973303;28;20038;-84
2023/02/25 04:02:43;;;;;;;11.55;6.93;;;;;;;3.72;76.06;96358.16;4970067;28;20035;-84
2023/02/25 04:05:11;;;;;;;32.58;14.43;;;;;;;3.71;76.09;96359.28;4971335;28;20034;-83
2023/02/25 04:07:38;;;;;;;13.77;7.68;;;;;;;3.68;76.17;96355.25;4971605;28;20502;-83
2023/02/25 04:10:06;;;;;;;11.45;7.00;;;;;;;3.68;76.34;96349.03;4972934;28;20487;-84
2023/02/25 04:12:32;;;;;;;16.70;9.57;;;;;;;3.69;76.22;96356.84;4972495;28;20081;-83
2023/02/25 04:14:58;;;;;;;16.23;8.70;;;;;;;3.69;76.10;96356.06;4987392;28;20699;-84
2023/02/25 04:17:24;;;;;;;11.98;7.45;;;;;;;3.69;75.88;96354.13;4973039;28;20113;-84
2023/02/25 04:19:50;;;;;;;8.85;6.57;;;;;;;3.67;76.66;96350.91;4973622;28;20399;-83
2023/02/25 04:22:15;;;;;;;11.77;7.25;;;;;;;3.68;76.28;96366.09;4972833;28;20034;-83
2023/02/25 04:24:41;;;;;;;12.05;6.70;;;;;;;3.65;76.52;96358.59;4973339;28;20033;-83
2023/02/25 04:27:06;;;;;;;10.57;6.47;;;;;;;3.64;76.45;96354.25;4972667;28;20035;-83
2023/02/25 04:29:31;;;;;;;10.60;6.45;;;;;;;3.63;76.50;96349.13;4973122;28;20417;-83
2023/02/25 04:31:59;;;;;;;10.68;7.10;;;;;;;3.58;75.54;96347.34;4973107;28;20114;-82
2023/02/25 04:34:24;;;;;;;11.20;6.53;;;;;;;3.54;75.58;96339.00;4973388;28;20097;-83
2023/02/25 04:36:50;;;;;;;8.80;5.97;;;;;;;3.50;75.58;96345.34;4972544;28;20045;-83
2023/02/25 04:39:17;;;;;;;11.43;6.63;;;;;;;3.47;75.89;96343.22;4973366;28;20031;-82
2023/02/25 04:41:43;;;;;;;11.60;6.78;;;;;;;3.44;75.90;96360.91;4987384;28;20038;-83
2023/02/25 04:44:09;;;;;;;17.13;9.52;;;;;;;3.40;75.74;96365.31;4970113;28;20089;-83
2023/02/25 04:46:38;;;;;;;15.13;8.43;;;;;;;3.39;76.01;96359.06;4970307;28;20034;-83
2023/02/25 04:49:05;;;;;;;10.90;6.75;;;;;;;3.34;76.11;96350.25;4972225;28;20097;-82
2023/02/25 04:51:32;;;;;;;12.77;6.63;;;;;;;3.31;76.32;96353.56;4972725;28;20467;-82
2023/02/25 04:53:58;;;;;;;8.90;5.82;;;;;;;3.27;76.45;96342.50;4972915;28;20022;-83
2023/02/25 04:56:24;;;;;;;8.77;6.13;;;;;;;3.25;76.21;96334.69;4987178;28;20019;-82
2023/02/25 04:58:49;;;;;;;12.57;7.30;;;;;;;3.25;76.52;96350.94;4972816;28;20464;-82
2023/02/25 05:01:15;;;;;;;10.95;6.53;;;;;;;3.22;75.52;96351.56;4972575;28;20026;-82
2023/02/25 05:03:40;;;;;;;11.63;6.80;;;;;;;3.20;75.80;96347.56;4971271;28;20030;-83
2023/02/25 05:06:07;;;;;;;11.68;7.22;;;;;;;3.17;76.13;96343.50;4971729;28;20248;-82
2023/02/25 05:08:34;;;;;;;11.40;6.93;;;;;;;3.16;76.59;96354.66;4972461;28;20642;-84
2023/02/25 05:11:00;;;;;;;11.93;6.75;;;;;;;3.13;76.05;96358.75;4972308;28;20031;-83
2023/02/25 05:13:26;;;;;;;13.07;7.47;;;;;;;3.09;75.96;96355.03;4972109;28;20046;-83
2023/02/25 05:15:52;;;;;;;13.48;7.18;;;;;;;3.09;75.75;96355.88;4971977;28;20081;-83
2023/02/25 05:18:17;;;;;;;12.55;7.40;;;;;;;3.09;76.04;96355.03;4972593;28;20427;-81
2023/02/25 05:20:45;;;;;;;12.52;7.32;;;;;;;3.10;75.62;96360.19;4972231;28;20050;-81
2023/02/25 05:23:10;;;;;;;15.82;10.57;;;;;;;3.12;76.55;96368.00;4971975;28;20030;-82
2023/02/25 05:25:40;;;;;;;18.88;11.70;;;;;;;3.12;75.76;96360.69;4971812;28;20050;-81
2023/02/25 05:28:14;;;;;;;51.70;21.02;;;;;;;3.15;75.70;96369.31;4970942;28;20038;-81
2023/02/25 05:30:40;;;;;;;25.10;12.18;;;;;;;3.17;76.27;96365.19;4972240;28;20035;-81
2023/02/25 05:33:05;;;;;;;18.65;9.82;;;;;;;3.19;76.00;96362.19;4971309;28;20027;-81
2023/02/25 05:35:31;;;;;;;21.63;11.02;;;;;;;3.19;76.53;96368.41;4971117;28;20400;-79
2023/02/25 05:37:57;;;;;;;27.55;12.02;;;;;;;3.21;76.54;96358.06;4970608;28;20491;-81
2023/02/25 05:40:23;;;;;;;22.55;10.77;;;;;;;3.26;76.10;96359.91;4971455;28;20500;-80
2023/02/25 05:42:48;;;;;;;14.00;8.10;;;;;;;3.30;75.88;96360.09;4971784;28;20039;-80
2023/02/25 05:45:14;;;;;;;12.93;8.45;;;;;;;3.34;76.50;96363.81;4971531;28;20070;-80
2023/02/25 05:47:40;;;;;;;11.40;7.63;;;;;;;3.35;76.35;96358.06;4970946;28;20039;-80
2023/02/25 05:50:06;;;;;;;13.57;10.00;;;;;;;3.36;75.67;96356.19;4971342;28;20050;-82
2023/02/25 05:52:31;;;;;;;15.82;9.70;;;;;;;3.38;76.18;96352.06;4970127;28;20546;-82
2023/02/25 05:54:57;;;;;;;14.60;9.27;;;;;;;3.41;76.85;96356.88;4971593;28;20105;-82
2023/02/25 05:57:22;;;;;;;14.68;10.00;;;;;;;3.46;76.23;96353.28;4985892;28;20046;-82
2023/02/25 05:59:49;;;;;;;15.43;10.35;;;;;;;3.49;76.36;96358.06;4970344;28;20038;-82
2023/02/25 06:02:14;;;;;;;14.35;9.93;;;;;;;3.50;76.17;96359.66;4970194;28;20050;-82
2023/02/25 06:04:40;;;;;;;14.35;10.57;;;;;;;3.51;76.03;96360.50;4971066;28;20034;-83
2023/02/25 06:07:05;;;;;;;14.43;9.50;;;;;;;3.53;76.17;96369.91;4970523;28;20034;-82
2023/02/25 06:09:33;;;;;;;16.92;10.48;;;;;;;3.55;76.66;96373.13;4970842;28;20030;-83
2023/02/25 06:11:59;;;;;;;23.60;11.07;;;;;;;3.57;76.26;96373.63;4970642;28;20524;-82
2023/02/25 06:14:25;;;;;;;22.13;11.52;;;;;;;3.57;76.33;96372.84;4971360;28;20519;-82
2023/02/25 06:16:55;;;;;;;21.13;10.27;;;;;;;3.57;75.88;96370.91;4968582;28;20035;-82
2023/02/25 06:19:25;;;;;;;23.00;11.10;;;;;;;3.59;76.37;96381.47;4970296;28;20081;-82
2023/02/25 06:21:53;;;;;;;20.00;10.25;;;;;;;3.57;76.05;96370.91;4970736;28;20039;-83
2023/02/25 06:24:20;;;;;;;21.15;10.07;;;;;;;3.56;76.29;96380.16;4970935;28;20501;-82
2023/02/25 06:26:45;;;;;;;17.48;9.73;;;;;;;3.56;76.33;96374.72;4969529;28;20065;-81
2023/02/25 06:29:11;;;;;;;18.33;10.88;;;;;;;3.56;76.06;96379.38;4970589;28;20062;-81
2023/02/25 06:31:36;;;;;;;33.25;15.77;;;;;;;3.57;76.47;96373.63;4970687;28;20035;-82
2023/02/25 06:34:02;;;;;;;19.98;11.10;;;;;;;3.55;75.89;96375.84;4970708;28;20061;-83
2023/02/25 06:36:27;;;;;;;21.95;11.65;;;;;;;3.57;76.55;96376.34;4969335;28;20125;-83
2023/02/25 06:38:53;;;;;;;19.08;9.75;;;;;;;3.56;76.19;96363.88;4970154;28;20077;-82
2023/02/25 06:41:20;;;;;;;20.23;11.02;;;;;;;3.55;76.16;96377.75;4967725;28;20483;-82
2023/02/25 06:43:50;;;;;;;14.35;8.55;;;;;;;3.55;75.96;96378.53;4964222;28;20129;-82
2023/02/25 06:46:18;;;;;;;12.82;8.20;;;;;;;3.56;75.60;96382.06;4964574;28;20034;-82
2023/02/25 06:48:43;;;;;;;12.82;7.65;;;;;;;3.55;75.82;96383.97;4969369;28;20050;-83
2023/02/25 06:51:10;;;;;;;10.85;7.28;;;;;;;3.55;75.32;96386.69;4969991;28;20542;-82
2023/02/25 06:53:37;;;;;;;10.77;6.25;;;;;;;3.58;75.73;96391.50;4970833;28;20058;-82
2023/02/25 06:56:03;;;;;;;13.68;6.43;;;;;;;3.63;75.94;96396.03;4970395;28;20045;-83
2023/02/25 06:58:28;;;;;;;15.30;7.72;;;;;;;3.67;75.71;96396.22;4969644;28;20129;-82
2023/02/25 07:00:53;;;;;;;12.45;6.95;;;;;;;3.71;75.52;96397.22;4970226;28;21986;-82
2023/02/25 07:03:19;;;;;;;9.68;5.70;;;;;;;3.72;75.67;96401.53;4970960;28;20064;-81
2023/02/25 07:05:44;;;;;;;11.23;6.25;;;;;;;3.70;74.96;96404.53;4969636;28;20468;-81
2023/02/25 07:08:09;;;;;;;8.95;5.40;;;;;;;3.73;75.22;96422.13;4969686;28;20034;-81
2023/02/25 07:10:35;;;;;;;6.20;3.97;;;;;;;3.73;74.77;96422.91;4970614;28;20539;-81
2023/02/25 07:13:01;;;;;;;8.35;5.20;;;;;;;3.69;74.59;96421.13;4970134;28;20038;-83
2023/02/25 07:15:26;;;;;;;5.82;3.50;;;;;;;3.65;74.15;96411.97;4969544;28;20121;-83
2023/02/25 07:17:51;;;;;;;7.15;4.47;;;;;;;3.64;74.52;96405.78;4970105;28;20102;-82
2023/02/25 07:20:17;;;;;;;8.55;4.70;;;;;;;3.68;74.62;96403.25;4970201;28;20034;-83
2023/02/25 07:22:42;;;;;;;6.82;4.50;;;;;;;3.72;74.94;96410.47;4970092;28;20070;-82
2023/02/25 07:25:12;;;;;;;20.42;9.10;;;;;;;3.76;74.47;96413.38;4968705;28;20031;-82
2023/02/25 07:27:42;;;;;;;19.38;8.77;;;;;;;3.82;74.09;96406.75;4973766;28;20031;-82
2023/02/25 07:30:12;;;;;;;23.10;9.88;;;;;;;3.87;74.83;96406.63;4974788;28;20037;-82
2023/02/25 07:32:38;;;;;;;22.08;9.98;;;;;;;3.98;74.17;96411.84;4974777;28;20479;-82
2023/02/25 07:35:04;;;;;;;13.60;7.38;;;;;;;4.03;74.21;96406.31;4974284;28;20035;-83
2023/02/25 07:37:30;;;;;;;8.43;4.88;;;;;;;4.07;74.14;96407.31;4974141;28;20106;-83
2023/02/25 07:39:58;;;;;;;7.65;4.18;;;;;;;4.09;74.56;96405.09;4974778;28;20372;-81
2023/02/25 07:42:28;;;;;;;6.60;3.47;;;;;;;4.10;73.92;96404.00;4972747;28;20045;-82
2023/02/25 07:44:54;;;;;;;5.88;4.25;;;;;;;4.14;73.77;96396.03;4973272;28;20028;-83
2023/02/25 07:47:20;;;;;;;6.63;3.40;;;;;;;4.15;73.54;96401.19;4972439;28;20026;-81
2023/02/25 07:49:46;;;;;;;5.40;3.88;;;;;;;4.15;73.77;96408.50;4972667;28;20683;-83
2023/02/25 07:52:11;;;;;;;8.70;4.70;;;;;;;4.16;73.92;96407.41;4973158;28;20109;-82
2023/02/25 07:54:36;;;;;;;9.60;5.72;;;;;;;4.20;73.93;96402.19;4971712;28;20114;-83
2023/02/25 07:57:02;;;;;;;7.80;4.30;;;;;;;4.22;73.37;96402.69;4973215;28;20393;-83
2023/02/25 07:59:27;;;;;;;6.07;3.72;;;;;;;4.24;73.08;96395.81;4973899;28;20030;-83
2023/02/25 08:01:53;;;;;;;6.65;3.42;;;;;;;4.26;73.47;96392.81;4987998;28;20451;-79
2023/02/25 08:04:19;;;;;;;8.00;5.28;;;;;;;4.27;73.06;96394.44;4974000;28;20073;-79
2023/02/25 08:06:45;;;;;;;9.65;5.85;;;;;;;4.31;73.38;96398.94;4972385;28;20049;-89
2023/02/25 08:09:11;;;;;;;10.48;6.07;;;;;;;4.36;73.87;96397.19;4973653;28;20058;-84
2023/02/25 08:11:37;;;;;;;7.32;3.90;;;;;;;4.38;73.36;96403.13;4972710;28;20141;-83
2023/02/25 08:14:04;;;;;;;8.38;5.00;;;;;;;4.39;73.20;96400.09;4971684;28;20464;-85
2023/02/25 08:16:31;;;;;;;8.20;4.35;;;;;;;4.39;73.35;96410.16;4974316;28;20027;-84
2023/02/25 08:18:57;;;;;;;7.10;3.17;;;;;;;4.41;73.35;96411.44;4974329;28;20034;-83
2023/02/25 08:21:24;;;;;;;7.65;3.88;;;;;;;4.46;72.72;96405.13;4970828;28;20031;-80
2023/02/25 08:23:51;;;;;;;6.28;3.33;;;;;;;4.50;73.38;96403.38;4971048;28;20089;-80
2023/02/25 08:26:17;;;;;;;6.55;3.90;;;;;;;4.57;72.86;96405.69;4971850;28;20045;-80
2023/02/25 08:28:43;;;;;;;6.47;3.22;;;;;;;4.64;72.89;96408.78;4972187;28;20023;-80
2023/02/25 08:31:13;;;;;;;9.20;4.30;;;;;;;4.71;72.96;96411.84;4971930;28;20029;-82
2023/02/25 08:33:42;;;;;;;8.05;3.50;;;;;;;4.79;72.51;96406.78;4972104;28;20054;-81
2023/02/25 08:36:10;;;;;;;5.47;2.85;;;;;;;4.83;72.05;96403.16;4972140;28;20027;-79
2023/02/25 08:38:37;;;;;;;6.00;3.13;;;;;;;4.89;72.15;96411.97;4970650;28;20038;-78
2023/02/25 08:41:03;;;;;;;18.02;6.60;;;;;;;4.92;71.68;96398.56;4972445;28;20035;-78
2023/02/25 08:43:28;;;;;;;6.15;3.05;;;;;;;5.02;71.83;96413.81;4971000;28;20043;-79
2023/02/25 08:45:55;;;;;;;4.70;2.58;;;;;;;5.07;69.95;96407.44;4971447;28;20023;-78
2023/02/25 08:48:21;;;;;;;5.97;2.92;;;;;;;5.08;69.91;96398.19;4971139;28;20035;-80
2023/02/25 08:50:46;;;;;;;5.38;2.30;;;;;;;5.09;68.97;96402.50;4964948;28;20061;-77
2023/02/25 08:53:12;;;;;;;7.20;2.55;;;;;;;5.07;69.42;96408.25;4970750;28;20393;-79
2023/02/25 08:55:38;;;;;;;4.20;2.28;;;;;;;5.10;68.39;96414.97;4968013;28;20058;-78
2023/02/25 08:58:04;;;;;;;5.72;2.63;;;;;;;5.15;67.43;96406.69;4969599;28;20047;-79
2023/02/25 09:00:30;;;;;;;6.95;2.58;;;;;;;5.16;68.07;96410.19;4969824;28;20039;-79
2023/02/25 09:02:55;;;;;;;3.22;1.60;;;;;;;5.15;66.61;96401.25;4969911;28;20397;-78
2023/02/25 09:05:23;;;;;;;4.55;1.73;;;;;;;5.08;65.85;96403.63;4970532;28;20583;-80
2023/02/25 09:07:48;;;;;;;4.65;2.22;;;;;;;5.01;66.72;96409.50;4969352;28;20085;-82
2023/02/25 09:10:13;;;;;;;4.18;1.50;;;;;;;5.02;66.10;96402.94;4969989;28;20054;-82
2023/02/25 09:12:41;;;;;;;2.05;1.17;;;;;;;4.99;64.86;96400.03;4970787;28;20023;-82
2023/02/25 09:15:08;;;;;;;3.65;1.52;;;;;;;4.95;64.96;96412.63;4970350;28;20038;-81
2023/02/25 09:17:34;;;;;;;4.45;1.80;;;;;;;4.91;65.45;96410.53;4968639;28;20034;-81
2023/02/25 09:20:00;;;;;;;3.78;1.67;;;;;;;4.89;65.16;96409.25;4968534;28;20373;-79
2023/02/25 09:22:27;;;;;;;3.83;1.60;;;;;;;4.85;65.37;96411.78;4969888;28;20530;-80
2023/02/25 09:24:53;;;;;;;5.13;2.15;;;;;;;4.80;66.02;96408.38;4970056;28;20035;-80
2023/02/25 09:27:18;;;;;;;5.57;2.05;;;;;;;4.78;65.47;96406.00;4970879;28;20034;-79
2023/02/25 09:29:44;;;;;;;2.22;1.63;;;;;;;4.73;65.72;96406.91;4968159;28;20057;-79
2023/02/25 09:32:18;;;;;;;3.55;2.00;;;;;;;4.71;65.68;96413.75;4970048;28;20482;-79
2023/02/25 09:34:44;;;;;;;2.95;1.40;;;;;;;4.69;65.72;96402.41;4969668;28;20523;-79
2023/02/25 09:37:11;;;;;;;4.50;1.60;;;;;;;4.66;66.41;96409.25;4968236;28;20034;-80
2023/02/25 09:39:36;;;;;;;3.17;1.60;;;;;;;4.61;66.14;96406.66;4969512;28;20038;-78
2023/02/25 09:42:08;;;;;;;5.85;2.10;;;;;;;4.56;65.67;96418.44;4968233;28;20031;-81
2023/02/25 09:44:44;;;;;;;3.78;2.42;;;;;;;4.53;65.99;96413.63;4969070;28;20039;-79
2023/02/25 09:47:42;;;;;;;4.68;2.83;;;;;;;4.47;66.38;96406.72;4968394;28;20448;-85
2023/02/25 09:50:20;;;;;;;7.32;5.35;;;;;;;4.47;66.47;96404.78;4968709;28;20035;-82
2023/02/25 09:52:56;;;;;;;5.88;3.40;;;;;;;4.43;66.94;96411.94;4970738;28;20039;-80
2023/02/25 09:55:30;;;;;;;17.50;8.20;;;;;;;4.42;66.98;96413.06;4969910;28;20030;-80
2023/02/25 09:58:35;;;;;;;20.08;9.38;;;;;;;4.48;67.54;96419.19;4969260;28;20047;-84
2023/02/25 10:01:14;;;;;;;20.63;10.43;;;;;;;4.55;67.16;96427.69;4966802;28;20407;-77
2023/02/25 10:04:03;;;;;;;16.35;6.47;;;;;;;4.57;67.48;96446.41;4969111;28;20084;-76
2023/02/25 10:06:44;;;;;;;11.32;4.80;;;;;;;4.54;67.17;96436.16;4968693;28;20030;-80
2023/02/25 10:09:27;;;;;;;6.82;3.33;;;;;;;4.49;67.70;96433.56;4967937;28;20081;-81
2023/02/25 10:12:00;;;;;;;5.28;3.30;;;;;;;4.39;68.05;96442.72;4968683;28;20364;-79
2023/02/25 10:14:30;;;;;;;7.57;3.47;;;;;;;4.30;67.54;96446.16;4966690;28;20085;-80
2023/02/25 10:17:43;;;;;;;4.18;2.65;;;;;;;4.19;67.82;96444.78;4968125;28;20026;-80
2023/02/25 10:20:17;;;;;;;7.15;4.03;;;;;;;4.05;67.77;96444.78;4966845;28;20022;-80
2023/02/25 10:22:53;;;;;;;5.57;3.53;;;;;;;3.98;68.15;96442.50;4968701;28;20031;-80
2023/02/25 10:25:26;;;;;;;6.68;3.80;;;;;;;3.95;69.08;96453.97;4968925;28;20019;-80
2023/02/25 10:27:59;;;;;;;9.77;6.32;;;;;;;3.91;68.92;96465.69;4969167;28;20027;-81
2023/02/25 10:30:56;;;;;;;14.80;8.35;;;;;;;3.81;69.08;96466.69;4965198;28;20034;-80
2023/02/25 10:33:25;;;;;;;2.78;1.83;;;;;;;3.76;69.46;96474.94;4968946;28;20400;-80
2023/02/25 10:35:59;;;;;;;4.75;2.33;;;;;;;3.73;69.17;96465.50;4967558;28;20062;-80
2023/02/25 10:38:25;;;;;;;18.65;9.73;;;;;;;3.72;69.30;96469.31;4967500;28;20114;-80
2023/02/25 10:40:56;;;;;;;6.43;3.70;;;;;;;3.71;69.77;96476.63;4966845;28;20150;-80
2023/02/25 10:43:26;;;;;;;7.10;4.45;;;;;;;3.70;69.75;96469.59;4967580;28;20034;-83
2023/02/25 10:46:01;;;;;;;;;;;;;;;3.75;69.67;96467.91;4967085;28;20038;-78
2023/02/25 10:48:28;;;;;;;5.38;2.83;;;;;;;3.79;69.70;96461.59;4966684;28;19964;-78
2023/02/25 10:51:08;;;;;;;10.23;4.28;;;;;;;3.83;69.78;96459.88;4968039;28;20085;-79
2023/02/25 10:53:34;;;;;;;6.40;3.08;;;;;;;3.87;70.36;96460.88;4968165;28;20121;-80
2023/02/25 10:56:00;;;;;;;4.63;2.35;;;;;;;3.97;70.15;96459.06;4965552;28;20122;-85
2023/02/25 10:58:33;;;;;;;3.28;2.20;;;;;;;4.04;70.64;96458.69;4966791;28;20047;-81
2023/02/25 11:01:12;;;;;;;5.07;2.70;;;;;;;4.12;70.07;96456.03;4965797;28;20030;-79
2023/02/25 11:03:59;;;;;;;4.50;2.70;;;;;;;4.24;70.22;96450.09;4967898;28;20023;-79
2023/02/25 11:06:31;;;;;;;3.83;2.00;;;;;;;4.33;69.99;96452.88;4967070;28;20035;-77
2023/02/25 11:08:59;;;;;;;5.47;2.67;;;;;;;4.38;70.59;96449.28;4967698;28;20727;-79
2023/02/25 11:11:27;;;;;;;5.20;2.50;;;;;;;4.45;70.62;96455.09;4966099;28;20038;-79
2023/02/25 11:14:04;;;;;;;7.53;2.97;;;;;;;4.54;69.95;96455.94;4967616;28;20046;-77
2023/02/25 11:16:33;;;;;;;7.78;3.17;;;;;;;4.64;70.32;96449.50;4966428;28;20066;-76
2023/02/25 11:19:04;;;;;;;7.07;3.40;;;;;;;4.68;70.74;96449.69;4964134;28;20043;-79
2023/02/25 11:21:36;;;;;;;8.07;3.80;;;;;;;4.72;70.36;96454.19;4967121;28;20086;-75
2023/02/25 11:24:11;;;;;;;5.55;2.70;;;;;;;4.76;70.08;96454.38;4967969;28;20515;-77
2023/02/25 11:26:46;;;;;;;9.85;4.80;;;;;;;4.82;70.91;96463.19;4964011;28;20487;-76
2023/02/25 11:29:20;;;;;;;4.47;2.53;;;;;;;4.86;70.59;96459.56;4966994;28;20018;-76
2023/02/25 11:32:11;;;;;;;3.40;1.95;;;;;;;4.85;69.30;96462.59;4964896;28;20054;-76
2023/02/25 11:34:47;;;;;;;3.53;1.50;;;;;;;4.82;69.75;96463.19;4962876;28;20078;-76
2023/02/25 11:37:36;;;;;;;2.70;1.30;;;;;;;4.81;69.42;96470.56;4966902;28;20263;-80
2023/02/25 11:40:19;;;;;;;17.17;7.70;;;;;;;4.80;69.70;96481.72;4967119;28;20394;-79
2023/02/25 11:43:00;;;;;;;22.02;8.88;;;;;;;4.72;68.77;96480.53;4966419;28;20035;-78
2023/02/25 11:45:28;;;;;;;19.25;5.57;;;;;;;4.66;68.27;96479.88;4967228;28;20122;-76
2023/02/25 11:47:54;;;;;;;19.27;4.88;;;;;;;4.60;68.36;96489.22;4967981;28;20058;-82